TimeMST,TemperatureF,Dew PointF,Humidity,Sea Level PressureIn,VisibilityMPH,Wind Direction,Wind SpeedMPH,Gust SpeedMPH,PrecipitationIn,Events,Conditions,WindDirDegrees,DateUTC
12:51 AM,33.1,30.0,89,29.96,10.0,Calm,Calm,-,N/A,,Mostly Cloudy,0,2012-12-16 07:51:00
1:51 AM,34.0,30.9,89,29.95,10.0,ESE,4.6,-,N/A,,Overcast,120,2012-12-16 08:51:00
2:51 AM,34.0,30.9,89,29.97,10.0,Calm,Calm,-,N/A,,Overcast,0,2012-12-16 09:51:00
3:51 AM,33.1,30.0,89,29.96,10.0,SE,6.9,-,N/A,,Clear,130,2012-12-16 10:51:00
4:51 AM,30.9,28.0,89,29.97,10.0,SE,5.8,-,N/A,,Clear,130,2012-12-16 11:51:00
5:51 AM,32.0,30.0,92,29.98,10.0,SE,9.2,-,N/A,,Clear,130,2012-12-16 12:51:00
6:51 AM,32.0,28.9,88,30.00,10.0,SE,10.4,-,N/A,,Clear,130,2012-12-16 13:51:00
7:51 AM,33.1,28.9,85,30.04,10.0,Calm,Calm,-,N/A,,Clear,0,2012-12-16 14:51:00
8:51 AM,33.1,30.0,89,30.06,10.0,SE,5.8,-,N/A,,Clear,130,2012-12-16 15:51:00
9:51 AM,37.0,32.0,82,30.07,10.0,SE,5.8,-,N/A,,Clear,140,2012-12-16 16:51:00
10:51 AM,39.2,32.0,75,30.12,10.0,ESE,11.5,-,N/A,,Clear,120,2012-12-16 17:51:00
11:51 AM,44.1,32.0,63,30.04,10.0,ESE,10.4,-,N/A,,Clear,110,2012-12-16 18:51:00
12:51 PM,45.0,32.0,60,30.04,10.0,SW,9.2,-,N/A,,Clear,230,2012-12-16 19:51:00
1:51 PM,45.0,30.9,58,30.03,10.0,WSW,12.7,-,N/A,,Clear,250,2012-12-16 20:51:00
2:51 PM,46.9,30.9,54,30.01,10.0,SW,9.2,-,N/A,,Clear,220,2012-12-16 21:51:00
3:51 PM,46.0,32.0,58,30.01,10.0,SW,11.5,-,N/A,,Clear,230,2012-12-16 22:51:00
4:51 PM,45.0,30.9,58,30.02,10.0,SW,10.4,-,N/A,,Scattered Clouds,220,2012-12-16 23:51:00
5:51 PM,43.0,32.0,65,30.04,10.0,SSW,8.1,-,N/A,,Overcast,210,2012-12-17 00:51:00
6:51 PM,43.0,34.0,71,30.05,10.0,SW,4.6,-,N/A,,Overcast,220,2012-12-17 01:51:00
7:51 PM,42.8,35.6,76,30.11,10.0,SW,4.6,-,N/A,,Overcast,230,2012-12-17 02:51:00
8:51 PM,42.1,35.1,76,30.07,10.0,Calm,Calm,-,N/A,,Overcast,0,2012-12-17 03:51:00
9:51 PM,42.1,36.0,79,30.07,10.0,SW,3.5,-,N/A,,Overcast,220,2012-12-17 04:51:00
10:51 PM,42.1,36.0,79,30.07,10.0,ESE,3.5,-,N/A,,Overcast,120,2012-12-17 05:51:00
11:51 PM,43.0,35.1,74,30.07,10.0,Calm,Calm,-,N/A,,Overcast,0,2012-12-17 06:51:00